Time;durP1;ratioP1;P1;durP2;ratioP2;P2;SDS_P1;SDS_P2;PMS_P1;PMS_P2;Temp;Humidity;BMP_temperature;BMP_pressure;BME280_temperature;BME280_humidity;BME280_pressure;Samples;Min_cycle;Max_cycle;Signal;HPM_P1;HPM_P2
2023/12/03 00:02:22;;;;;;;3.05;1.40;;;;;;;-142.57;44.18;55939.47;4961715;28;20050;-88
2023/12/03 00:04:52;;;;;;;2.45;1.60;;;;;;;-142.57;43.94;55915.22;4965206;28;20035;-90
2023/12/03 00:07:18;;;;;;;4.05;1.50;;;;;;;-142.57;44.36;55899.03;5008344;28;20074;-88
2023/12/03 00:13:10;;;;;;;2.78;1.30;;;;;;;-142.57;46.51;55935.41;5017711;28;20038;-88
2023/12/03 00:15:36;;;;;;;1.77;1.33;;;;;;;-142.57;48.04;55957.66;5000692;28;20051;-88
2023/12/03 00:18:22;;;;;;;5.63;1.20;;;;;;;-142.57;48.52;55953.59;4967205;28;20023;-90
2023/12/03 00:20:50;;;;;;;1.90;1.17;;;;;;;-142.57;47.77;55937.44;4966916;28;20035;-89
2023/12/03 00:23:16;;;;;;;2.50;1.35;;;;;;;-142.57;47.52;55943.50;4995962;28;20042;-89
2023/12/03 00:25:41;;;;;;;2.72;1.30;;;;;;;-142.57;48.43;55929.34;4994615;28;20035;-89
2023/12/03 00:28:07;;;;;;;3.88;1.42;;;;;;;-142.57;48.35;55907.13;4983481;28;20074;-88
2023/12/03 00:30:32;;;;;;;2.25;1.38;;;;;;;-142.57;49.65;55935.41;4981221;28;20051;-88
2023/12/03 00:32:58;;;;;;;3.78;1.40;;;;;;;-142.57;51.22;55903.09;4977859;28;20117;-89
2023/12/03 00:35:23;;;;;;;2.05;1.50;;;;;;;-142.57;50.07;55909.16;4979142;28;20346;-92
2023/12/03 00:37:51;;;;;;;3.70;2.03;;;;;;;-142.57;48.62;55943.50;4977501;28;20121;-89
2023/12/03 00:40:17;;;;;;;3.40;2.30;;;;;;;-142.57;47.96;55911.16;4976788;28;20053;-90
2023/12/03 00:42:45;;;;;;;3.22;1.67;;;;;;;-142.57;48.26;55886.91;4976609;28;20023;-90
2023/12/03 00:45:11;;;;;;;4.90;1.95;;;;;;;-142.57;48.38;55874.78;4975505;28;20042;-93
2023/12/03 00:47:36;;;;;;;4.43;1.83;;;;;;;-142.57;48.71;55905.09;4975856;28;20051;-89
2023/12/03 00:50:02;;;;;;;6.47;2.00;;;;;;;-142.57;49.40;55846.50;4979993;28;20038;-87
2023/12/03 00:52:27;;;;;;;3.05;2.15;;;;;;;-142.57;49.57;55842.47;4979523;28;20424;-88
2023/12/03 00:54:53;;;;;;;8.10;2.70;;;;;;;-142.57;50.27;55822.25;4980302;28;20038;-90
2023/12/03 00:57:18;;;;;;;5.07;2.78;;;;;;;-142.57;50.94;55822.25;4980494;28;20050;-90
2023/12/03 00:59:44;;;;;;;2.97;1.88;;;;;;;-142.57;51.15;55844.50;4979982;28;20481;-90
2023/12/03 01:02:09;;;;;;;4.32;2.10;;;;;;;-142.57;50.92;55816.19;4979559;28;20034;-88
2023/12/03 01:04:35;;;;;;;3.03;1.83;;;;;;;-142.57;51.22;55838.44;4977598;28;20552;-91
2023/12/03 01:07:00;;;;;;;2.97;1.63;;;;;;;-142.57;50.98;55846.50;4978768;28;20037;-91
2023/12/03 01:09:30;;;;;;;2.85;1.90;;;;;;;-142.57;51.53;55822.25;4980047;28;20478;-90
2023/12/03 01:11:57;;;;;;;4.53;2.47;;;;;;;-142.57;51.68;55842.47;4976325;28;20027;-91
2023/12/03 01:14:23;;;;;;;3.28;1.77;;;;;;;-142.57;52.61;55838.44;4975152;28;20050;-91
2023/12/03 01:16:49;;;;;;;2.60;1.90;;;;;;;-142.57;52.10;55808.13;4974537;28;20073;-88
2023/12/03 01:19:14;;;;;;;3.45;1.90;;;;;;;-142.57;52.50;55818.22;4960688;28;20042;-92
2023/12/03 01:21:41;;;;;;;4.40;2.10;;;;;;;-142.57;53.14;55741.44;4978191;28;20039;-90
2023/12/03 01:24:06;;;;;;;28.30;9.48;;;;;;;-142.57;53.37;55705.06;4975030;28;20041;-89
2023/12/03 01:26:51;;;;;;;8.20;3.83;;;;;;;-142.57;53.74;55721.22;4980687;28;20035;-90
2023/12/03 01:29:27;;;;;;;3.45;2.13;;;;;;;-142.57;54.13;55743.47;4983288;28;20069;-91
2023/12/03 01:31:54;;;;;;;4.55;2.15;;;;;;;-142.57;55.14;55709.09;4989501;28;20045;-88
2023/12/03 01:34:23;;;;;;;3.20;1.73;;;;;;;-142.57;54.49;55721.22;4976529;28;20053;-90
2023/12/03 01:36:49;;;;;;;2.63;1.73;;;;;;;-142.57;54.94;55692.94;4996932;28;20181;-87
2023/12/03 01:39:15;;;;;;;4.00;2.08;;;;;;;-142.57;55.51;55717.19;4983949;28;20034;-88
2023/12/03 01:41:41;;;;;;;2.58;1.65;;;;;;;-142.57;56.00;55705.06;4984676;28;20038;-89
2023/12/03 01:44:07;;;;;;;5.10;2.55;;;;;;;-142.57;56.46;55668.69;4989062;28;20026;-89
2023/12/03 01:46:33;;;;;;;3.10;1.83;;;;;;;-142.57;56.52;55709.09;5000035;28;20101;-89
2023/12/03 01:48:59;;;;;;;4.47;2.00;;;;;;;-142.57;57.48;55690.94;5000604;28;20090;-87
2023/12/03 01:51:26;;;;;;;4.65;2.10;;;;;;;-142.57;57.24;55674.75;4989235;28;20046;-90
2023/12/03 01:53:53;;;;;;;3.35;1.88;;;;;;;-142.57;57.59;55701.03;4980756;28;20047;-87
2023/12/03 01:56:19;;;;;;;4.95;2.40;;;;;;;-142.57;58.68;55682.84;4980092;28;20041;-88
2023/12/03 01:58:45;;;;;;;3.83;2.33;;;;;;;-142.57;59.06;55652.53;4978974;28;20035;-88
2023/12/03 02:01:12;;;;;;;3.55;2.13;;;;;;;-142.57;59.81;55709.09;4962950;28;20046;-88
2023/12/03 02:03:37;;;;;;;6.65;2.88;;;;;;;-142.57;60.72;55634.34;4979338;28;20037;-87
2023/12/03 02:06:08;;;;;;;5.93;2.92;;;;;;;-142.57;60.54;55636.38;4979814;28;20118;-87
2023/12/03 02:08:36;;;;;;;6.07;2.78;;;;;;;-142.57;59.86;55648.50;4980110;28;20073;-88
2023/12/03 02:11:04;;;;;;;3.63;2.60;;;;;;;-142.57;59.58;55672.75;4979986;28;20049;-86
2023/12/03 02:13:36;;;;;;;3.10;2.03;;;;;;;-142.57;59.63;55648.50;4980047;28;20606;-86
2023/12/03 02:16:02;;;;;;;2.95;2.08;;;;;;;-142.57;59.75;55634.34;4962955;28;20829;-88
2023/12/03 02:18:29;;;;;;;3.67;2.10;;;;;;;-142.57;59.84;55608.09;4962776;28;20058;-88
2023/12/03 02:20:55;;;;;;;4.65;2.45;;;;;;;-142.57;59.22;55664.66;4962306;28;20126;-86
2023/12/03 02:23:21;;;;;;;5.32;2.67;;;;;;;-142.57;59.67;55664.66;4980109;28;20082;-88
2023/12/03 02:25:48;;;;;;;7.35;3.22;;;;;;;-142.57;60.12;55674.75;4978409;28;20038;-87
2023/12/03 02:28:14;;;;;;;4.63;2.70;;;;;;;-142.57;61.55;55688.91;4980528;28;20034;-87
2023/12/03 02:30:40;;;;;;;4.50;2.65;;;;;;;-142.57;62.30;55670.72;4980039;28;20130;-87
2023/12/03 02:33:06;;;;;;;3.30;2.00;;;;;;;-142.57;62.23;55660.63;4979579;28;20033;-87
2023/12/03 02:35:31;;;;;;;7.25;2.60;;;;;;;-142.57;61.64;55674.75;4980223;28;20031;-87
2023/12/03 02:37:57;;;;;;;3.22;2.03;;;;;;;-142.57;62.33;55662.63;4978841;28;20038;-88
2023/12/03 02:40:23;;;;;;;4.53;2.22;;;;;;;-142.57;62.93;55636.38;4962886;28;20129;-88
2023/12/03 02:42:48;;;;;;;5.20;2.08;;;;;;;-142.57;63.78;55660.63;4962725;28;20035;-88
2023/12/03 02:45:14;;;;;;;8.60;4.38;;;;;;;-142.57;64.50;55567.69;4981634;28;20090;-86
2023/12/03 02:47:39;;;;;;;6.97;3.13;;;;;;;-142.57;65.27;55577.78;4997847;28;20053;-87
2023/12/03 02:50:05;;;;;;;5.50;2.70;;;;;;;-142.57;65.59;55567.69;4996156;28;20042;-89
2023/12/03 02:52:31;;;;;;;5.25;2.75;;;;;;;-142.57;66.12;55600.00;4981514;28;20038;-89
2023/12/03 02:54:56;;;;;;;4.55;2.30;;;;;;;-142.57;65.68;55610.09;4979337;28;20046;-91
2023/12/03 02:57:22;;;;;;;5.90;2.20;;;;;;;-142.57;66.77;55563.63;4976695;28;20034;-88
2023/12/03 02:59:48;;;;;;;3.85;2.20;;;;;;;-142.57;66.25;55608.09;4978169;28;20039;-87
2023/12/03 03:02:16;;;;;;;6.22;2.67;;;;;;;-142.57;66.39;55626.28;4977178;28;20067;-88
2023/12/03 03:04:41;;;;;;;3.47;2.13;;;;;;;-142.57;67.30;55567.69;4978083;28;20075;-89
2023/12/03 03:07:07;;;;;;;3.80;2.13;;;;;;;-142.57;68.52;55608.09;4987996;28;20043;-88
2023/12/03 03:09:33;;;;;;;3.95;2.28;;;;;;;-142.57;69.22;55551.50;4961432;28;20037;-89
2023/12/03 03:11:59;;;;;;;4.88;2.22;;;;;;;-142.57;68.93;55583.84;4975821;28;20571;-88
2023/12/03 03:14:25;;;;;;;4.25;2.45;;;;;;;-142.57;68.47;55591.91;4974784;28;20046;-89
2023/12/03 03:16:50;;;;;;;4.30;2.20;;;;;;;-142.57;67.60;55604.03;4959429;28;20070;-88
2023/12/03 03:19:16;;;;;;;3.38;2.17;;;;;;;-142.57;67.70;55622.22;4976276;28;20058;-89
2023/12/03 03:21:42;;;;;;;3.53;2.10;;;;;;;-142.57;67.50;55638.41;4976191;28;20035;-87
2023/12/03 03:24:07;;;;;;;4.93;2.17;;;;;;;-142.57;67.47;55622.22;4974748;28;20115;-88
2023/12/03 03:26:33;;;;;;;3.22;2.20;;;;;;;-142.57;68.54;55630.31;4976109;28;20478;-88
2023/12/03 03:28:59;;;;;;;3.58;2.15;;;;;;;-142.57;68.34;55640.41;4976010;28;20065;-89
2023/12/03 03:31:24;;;;;;;5.75;2.55;;;;;;;-142.57;69.99;55589.91;4976182;28;20430;-89
2023/12/03 03:33:50;;;;;;;4.88;2.38;;;;;;;-142.57;71.22;55604.03;4958353;28;20263;-88
2023/12/03 03:36:16;;;;;;;3.75;2.17;;;;;;;-142.57;71.11;55591.91;4975881;28;20409;-87
2023/12/03 03:38:43;;;;;;;3.03;2.00;;;;;;;-142.57;72.03;55571.72;4975793;28;20039;-90
2023/12/03 03:41:09;;;;;;;4.18;2.30;;;;;;;-142.57;72.67;55555.56;4976033;28;20038;-88
2023/12/03 03:43:35;;;;;;;4.05;2.30;;;;;;;-142.57;74.38;55547.47;4974866;28;20402;-90
2023/12/03 03:46:00;;;;;;;3.78;2.22;;;;;;;-142.57;73.99;55567.69;4958254;28;20023;-88
2023/12/03 03:48:26;;;;;;;5.13;2.95;;;;;;;-142.57;75.52;55567.69;4975620;28;20039;-88
2023/12/03 03:50:52;;;;;;;3.75;2.67;;;;;;;-142.57;76.83;55547.47;4974634;28;20053;-88
2023/12/03 03:53:17;;;;;;;4.22;2.35;;;;;;;-142.57;77.00;55559.59;4974366;28;20141;-89
2023/12/03 03:55:43;;;;;;;4.30;2.40;;;;;;;-142.57;78.74;55551.50;4973873;28;20069;-89
2023/12/03 03:58:09;;;;;;;3.42;2.20;;;;;;;-142.57;79.13;55551.50;4975748;28;20035;-89
2023/12/03 04:00:34;;;;;;;4.13;2.58;;;;;;;-142.57;77.61;55567.69;4972703;28;20038;-89
2023/12/03 04:03:00;;;;;;;4.78;2.92;;;;;;;-142.57;77.48;55567.69;4957831;28;20437;-88
2023/12/03 04:05:25;;;;;;;4.60;2.67;;;;;;;-142.57;77.18;55585.84;4975107;28;20038;-87
2023/12/03 04:07:51;;;;;;;3.47;2.33;;;;;;;-142.57;77.67;55559.59;4975071;28;20470;-87
2023/12/03 04:10:16;;;;;;;3.22;2.20;;;;;;;-142.57;76.90;55561.63;4991912;28;20031;-87
2023/12/03 04:12:42;;;;;;;4.78;2.65;;;;;;;-142.57;76.49;55531.31;4994849;28;20035;-88
2023/12/03 04:15:08;;;;;;;4.10;2.65;;;;;;;-142.57;76.06;55579.81;4975661;28;20092;-89
2023/12/03 04:17:34;;;;;;;4.07;2.25;;;;;;;-142.57;75.29;55581.81;4973967;28;20043;-87
2023/12/03 04:19:59;;;;;;;4.57;2.38;;;;;;;-142.57;73.45;55541.41;4974641;28;20033;-90
2023/12/03 04:22:25;;;;;;;4.28;2.33;;;;;;;-142.57;73.17;55533.31;4986265;28;20057;-88
2023/12/03 04:24:50;;;;;;;3.28;2.10;;;;;;;-142.57;72.52;55585.84;4993987;28;20034;-87
2023/12/03 04:27:16;;;;;;;6.85;2.67;;;;;;;-142.57;73.53;55531.31;4983838;28;20023;-87
2023/12/03 04:29:42;;;;;;;4.28;2.60;;;;;;;-142.57;72.91;55523.22;4974562;28;20042;-87
2023/12/03 04:32:08;;;;;;;3.97;2.20;;;;;;;-142.57;72.68;55527.28;4978072;28;20457;-89
2023/12/03 04:34:34;;;;;;;3.75;2.38;;;;;;;-142.57;73.03;55561.63;4956484;28;20042;-88
2023/12/03 04:36:59;;;;;;;3.45;2.17;;;;;;;-142.57;73.22;55519.19;4957552;28;20069;-87
2023/12/03 04:39:25;;;;;;;7.15;2.55;;;;;;;-142.57;73.99;55579.81;4974483;28;20034;-88
2023/12/03 04:41:50;;;;;;;3.25;2.25;;;;;;;-142.57;73.64;55559.59;4973049;28;20091;-87
2023/12/03 04:44:16;;;;;;;5.50;2.17;;;;;;;-142.57;74.07;55553.53;4974724;28;20114;-89
2023/12/03 04:46:41;;;;;;;3.58;2.00;;;;;;;-142.57;73.99;55509.09;4974506;28;20042;-89
2023/12/03 04:49:07;;;;;;;3.97;2.25;;;;;;;-142.57;73.11;55563.63;4974350;28;20118;-89
2023/12/03 04:51:33;;;;;;;6.35;2.20;;;;;;;-142.57;72.55;55551.50;4974641;28;20030;-88
2023/12/03 04:53:59;;;;;;;3.63;2.33;;;;;;;-142.57;72.60;55575.75;4972923;28;20489;-84
2023/12/03 04:56:24;;;;;;;5.22;2.25;;;;;;;-142.57;72.17;55559.59;4974797;28;20039;-88
2023/12/03 04:58:50;;;;;;;4.70;2.17;;;;;;;-142.57;71.94;55567.69;4974144;28;20085;-87
2023/12/03 05:01:18;;;;;;;2.80;1.58;;;;;;;-142.57;75.08;55515.16;4973715;28;20537;-88
2023/12/03 05:03:45;;;;;;;3.38;2.08;;;;;;;-142.57;76.71;55515.16;4973041;28;20035;-88
2023/12/03 05:06:11;;;;;;;5.13;1.70;;;;;;;-142.57;75.88;55551.50;4974697;28;20034;-87
2023/12/03 05:08:37;;;;;;;3.60;2.13;;;;;;;-142.57;75.51;55529.28;4976130;28;20122;-87
2023/12/03 05:11:06;;;;;;;3.15;1.92;;;;;;;-142.57;77.31;55478.78;4974436;28;20110;-87
2023/12/03 05:13:35;;;;;;;3.65;1.90;;;;;;;-142.57;77.47;55464.63;4972159;28;20045;-86
2023/12/03 05:16:02;;;;;;;4.93;1.83;;;;;;;-142.57;77.05;55486.84;4972431;28;20086;-89
2023/12/03 05:18:27;;;;;;;3.78;2.20;;;;;;;-142.57;75.83;55511.09;4974358;28;20084;-89
2023/12/03 05:20:53;;;;;;;3.33;2.10;;;;;;;-142.57;74.74;55529.28;4974055;28;20070;-86
2023/12/03 05:23:18;;;;;;;3.80;2.28;;;;;;;-142.57;73.16;55541.41;4973877;28;20066;-89
2023/12/03 05:25:44;;;;;;;2.45;1.70;;;;;;;-142.57;74.45;55480.78;4957880;28;20066;-88
2023/12/03 05:28:09;;;;;;;2.70;1.92;;;;;;;-142.57;78.09;55474.72;4976186;28;20038;-87
2023/12/03 05:30:35;;;;;;;4.55;1.90;;;;;;;-142.57;79.01;55438.38;4975558;28;20031;-87
2023/12/03 05:33:01;;;;;;;2.78;1.90;;;;;;;-142.57;79.99;55438.38;4975276;28;20037;-88
2023/12/03 05:35:26;;;;;;;2.35;1.77;;;;;;;-142.57;78.44;55464.63;4975341;28;20035;-85
2023/12/03 05:37:52;;;;;;;2.47;1.80;;;;;;;-142.57;77.73;55503.03;4978987;28;20085;-89
2023/12/03 05:40:17;;;;;;;3.75;1.90;;;;;;;-142.57;77.27;55478.78;4951703;28;20061;-86
2023/12/03 05:42:43;;;;;;;2.80;1.65;;;;;;;-142.57;79.87;55486.84;4989355;28;20027;-86
2023/12/03 05:45:09;;;;;;;2.90;1.90;;;;;;;-142.57;82.31;55430.28;4989844;28;20044;-85
2023/12/03 05:47:35;;;;;;;2.50;1.90;;;;;;;-142.57;83.77;55446.44;4977462;28;20111;-87
2023/12/03 05:50:02;;;;;;;3.22;2.17;;;;;;;-142.57;84.96;55488.88;4974934;28;20038;-87
2023/12/03 05:52:28;;;;;;;4.93;2.28;;;;;;;-142.57;83.68;55474.72;4957523;28;20441;-88
2023/12/03 05:54:54;;;;;;;5.65;2.40;;;;;;;-142.57;83.29;55492.91;4976442;28;20508;-88
2023/12/03 05:57:21;;;;;;;5.72;2.65;;;;;;;-142.57;81.80;55509.09;4964148;28;20065;-87
2023/12/03 05:59:47;;;;;;;5.78;2.78;;;;;;;-142.57;82.53;55464.63;4961043;28;20043;-86
2023/12/03 06:02:14;;;;;;;6.32;3.38;;;;;;;-142.57;82.15;55422.22;4983400;28;20037;-89
2023/12/03 06:04:40;;;;;;;4.88;2.83;;;;;;;-142.57;82.54;55450.50;4988586;28;20042;-84
2023/12/03 06:07:06;;;;;;;9.05;3.45;;;;;;;-142.57;80.96;55440.38;4975811;28;20027;-85
2023/12/03 06:09:32;;;;;;;14.63;3.38;;;;;;;-142.57;79.78;55498.97;4958043;28;20096;-85
2023/12/03 06:11:57;;;;;;;9.50;3.92;;;;;;;-142.57;78.11;55519.19;4967348;28;20095;-86
2023/12/03 06:14:23;;;;;;;8.60;4.43;;;;;;;-142.57;78.79;55462.63;4972834;28;20106;-81
2023/12/03 06:16:49;;;;;;;5.07;2.85;;;;;;;-142.57;78.78;55456.56;4979172;28;20411;-87
2023/12/03 06:19:18;;;;;;;4.63;2.88;;;;;;;-142.57;78.32;55470.69;4978874;28;20078;-85
2023/12/03 06:21:44;;;;;;;5.85;3.40;;;;;;;-142.57;75.90;55543.44;4985939;28;20035;-85
2023/12/03 06:24:12;;;;;;;8.90;3.28;;;;;;;-142.57;77.00;55470.69;4977948;28;20045;-89
2023/12/03 06:26:38;;;;;;;5.95;3.25;;;;;;;-142.57;79.39;55470.69;4963682;28;20039;-86
2023/12/03 06:29:04;;;;;;;7.95;3.47;;;;;;;-142.57;82.97;55432.31;4978724;28;20460;-88
2023/12/03 06:31:29;;;;;;;3.92;2.20;;;;;;;-142.57;81.61;55434.31;4980152;28;20034;-84
2023/12/03 06:33:55;;;;;;;6.70;2.78;;;;;;;-142.57;83.50;55462.63;4979812;28;20031;-87
2023/12/03 06:36:26;;;;;;;5.57;2.40;;;;;;;-142.57;82.02;55482.81;4979521;28;20099;-89
2023/12/03 06:38:51;;;;;;;7.28;2.80;;;;;;;-142.57;83.56;55462.63;4979644;28;20118;-89
2023/12/03 06:41:20;;;;;;;3.97;2.13;;;;;;;-142.57;83.49;55454.53;4980933;28;20034;-87
2023/12/03 06:43:46;;;;;;;3.92;2.05;;;;;;;-142.57;84.79;55410.09;4981076;28;20023;-84
2023/12/03 06:46:15;;;;;;;8.05;2.25;;;;;;;-142.57;86.10;55446.44;4980475;28;20038;-87
2023/12/03 06:48:42;;;;;;;8.38;2.15;;;;;;;-142.57;84.37;55462.63;4984638;28;20098;-88
2023/12/03 06:51:09;;;;;;;7.97;2.47;;;;;;;-142.57;83.96;55446.44;4987098;28;20083;-92
2023/12/03 06:53:35;;;;;;;4.78;2.30;;;;;;;-142.57;85.62;55438.38;4987035;28;20046;-88
2023/12/03 06:56:01;;;;;;;9.23;2.42;;;;;;;-142.57;84.20;55468.69;4979477;28;20039;-86
2023/12/03 06:58:30;;;;;;;9.93;2.42;;;;;;;-142.57;85.93;55432.31;4987429;28;20066;-91
2023/12/03 07:00:58;;;;;;;2.60;2.00;;;;;;;-142.57;89.15;55468.69;4972263;28;20046;-87
2023/12/03 07:03:26;;;;;;;3.67;2.38;;;;;;;-142.57;90.10;55450.50;4959887;28;20098;-87
2023/12/03 07:05:59;;;;;;;4.05;2.60;;;;;;;-142.57;91.54;55422.22;4977579;28;20026;-84
2023/12/03 07:08:28;;;;;;;5.70;3.55;;;;;;;-142.57;95.06;55418.16;4984307;28;20041;-89
2023/12/03 07:10:55;;;;;;;9.05;4.13;;;;;;;-142.57;95.63;55446.44;4965698;28;20054;-85
2023/12/03 07:13:21;;;;;;;10.00;4.05;;;;;;;-142.57;97.00;55462.63;4986436;28;20066;-89
2023/12/03 07:15:56;;;;;;;9.38;3.80;;;;;;;-142.57;100.00;55422.22;4980799;28;20070;-84
2023/12/03 07:18:22;;;;;;;6.55;3.63;;;;;;;-142.57;99.33;55501.00;4972906;28;20119;-88
2023/12/03 07:20:47;;;;;;;13.80;3.35;;;;;;;-142.57;100.00;55462.63;4969194;28;20062;-87
2023/12/03 07:23:13;;;;;;;5.90;3.63;;;;;;;-142.57;99.59;55486.84;4984581;28;20486;-88
2023/12/03 07:25:38;;;;;;;5.65;3.85;;;;;;;-142.57;100.00;55480.78;4988208;28;20081;-87
2023/12/03 07:28:16;;;;;;;4.82;3.40;;;;;;;-142.57;100.00;55466.66;4985556;28;20394;-89
2023/12/03 07:30:45;;;;;;;7.68;4.10;;;;;;;-142.57;100.00;55507.06;4980326;28;20043;-91
2023/12/03 07:33:11;;;;;;;12.30;4.20;;;;;;;-142.57;100.00;55515.16;4951211;28;20034;-84
2023/12/03 07:35:36;;;;;;;10.30;4.00;;;;;;;-142.57;99.74;55523.22;4953848;28;20512;-88
2023/12/03 07:38:02;;;;;;;8.27;4.45;;;;;;;-142.57;96.95;55559.59;4956557;28;20101;-88
2023/12/03 07:40:30;;;;;;;10.90;4.50;;;;;;;-142.57;100.00;55537.38;4949521;28;20049;-88
2023/12/03 07:42:56;;;;;;;8.82;4.07;;;;;;;-142.57;98.00;55565.66;4968856;28;20045;-92
2023/12/03 07:45:24;;;;;;;9.32;3.55;;;;;;;-142.57;93.46;55583.84;4970015;28;20025;-91
2023/12/03 07:47:50;;;;;;;7.63;3.78;;;;;;;-142.57;90.47;55640.41;4969119;28;20039;-88
2023/12/03 07:50:28;;;;;;;5.50;4.10;;;;;;;-142.57;88.27;55612.13;4975542;28;20034;-89
2023/12/03 07:52:53;;;;;;;6.32;3.88;;;;;;;-142.57;85.92;55660.63;4971685;28;20202;-90
2023/12/03 07:57:57;;;;;;;6.05;4.05;;;;;;;-142.57;82.62;55757.59;5099238;23;20513;-88
2023/12/03 08:00:26;;;;;;;8.88;4.50;;;;;;;-142.57;81.96;55723.25;4954477;28;20103;-90
2023/12/03 08:02:55;;;;;;;16.02;5.50;;;;;;;-142.57;85.41;55652.53;4990843;28;20018;-88
2023/12/03 08:05:21;;;;;;;9.80;5.15;;;;;;;-142.57;85.51;55664.66;4968299;28;20042;-88
2023/12/03 08:07:56;;;;;;;9.90;5.30;;;;;;;-142.57;89.54;55640.41;4994058;28;20023;-93
2023/12/03 08:10:22;;;;;;;8.15;4.50;;;;;;;-142.57;89.31;55616.16;4991093;28;20041;-85
2023/12/03 08:12:48;;;;;;;8.07;4.80;;;;;;;-142.57;87.10;55664.66;4973864;28;20099;-85
2023/12/03 08:15:27;;;;;;;12.05;5.38;;;;;;;-142.57;91.19;55608.09;4946739;29;20064;-85
2023/12/03 08:17:58;;;;;;;9.15;5.65;;;;;;;-142.57;93.72;55583.84;4947663;29;20415;-86
2023/12/03 08:20:24;;;;;;;10.73;4.85;;;;;;;-142.57;93.87;55616.16;4949243;29;20046;-87
2023/12/03 08:23:00;;;;;;;9.80;5.10;;;;;;;-142.57;91.40;55670.72;4927570;29;20052;-85
2023/12/03 08:25:26;;;;;;;6.85;4.63;;;;;;;-142.57;87.84;55676.78;4934081;29;20050;-84
2023/12/03 08:27:51;;;;;;;9.50;4.75;;;;;;;-142.57;90.14;55666.69;4934185;29;20032;-84
2023/12/03 08:30:17;;;;;;;10.07;4.50;;;;;;;-142.57;90.37;55636.38;4956318;28;20129;-82
2023/12/03 08:32:50;;;;;;;10.25;5.60;;;;;;;-142.57;89.33;55688.91;4974244;28;20035;-82
2023/12/03 08:35:16;;;;;;;7.85;5.20;;;;;;;-142.57;89.93;55709.09;4969914;28;20037;-84
2023/12/03 08:37:45;;;;;;;9.55;4.93;;;;;;;-142.57;88.06;55721.22;4952247;28;20042;-85
2023/12/03 08:40:11;;;;;;;8.15;5.05;;;;;;;-142.57;87.95;55729.31;4951923;29;20035;-85
2023/12/03 08:42:39;;;;;;;8.57;4.03;;;;;;;-142.57;87.84;55747.50;4962993;28;20398;-85
2023/12/03 08:45:08;;;;;;;6.85;4.43;;;;;;;-142.57;88.11;55715.16;4954891;28;20465;-87
2023/12/03 08:47:41;;;;;;;8.93;5.35;;;;;;;-142.57;87.51;55709.09;4952679;29;20042;-85
2023/12/03 08:50:10;;;;;;;17.73;8.05;;;;;;;-142.57;86.62;55713.16;4963501;28;20038;-85
2023/12/03 08:52:36;;;;;;;12.38;7.20;;;;;;;-142.57;85.97;55705.06;4961128;28;20521;-84
2023/12/03 08:55:06;;;;;;;11.88;6.60;;;;;;;-142.57;84.63;55777.81;4958880;28;20035;-83
2023/12/03 08:57:32;;;;;;;13.45;6.70;;;;;;;-142.57;82.68;55787.91;4927403;29;20074;-84
2023/12/03 08:59:57;;;;;;;11.55;6.13;;;;;;;-142.57;81.09;55818.22;4960735;28;20038;-83
2023/12/03 09:02:40;;;;;;;20.65;6.75;;;;;;;-142.57;80.40;55816.19;4962360;28;20031;-83
2023/12/03 09:05:08;;;;;;;12.98;6.68;;;;;;;-142.57;79.23;55818.22;4957783;28;20079;-85
2023/12/03 09:07:35;;;;;;;18.90;6.63;;;;;;;-142.57;80.54;55785.91;4931273;29;20046;-90
2023/12/03 09:10:18;;;;;;;9.52;5.72;;;;;;;-142.57;80.21;55846.50;4935511;29;20094;-88
2023/12/03 09:12:57;;;;;;;9.30;5.78;;;;;;;-142.57;79.83;55802.06;4939571;28;20065;-86
2023/12/03 09:15:23;;;;;;;11.40;6.13;;;;;;;-142.57;81.05;55854.59;4973270;28;20051;-83
2023/12/03 09:17:49;;;;;;;10.40;6.00;;;;;;;-142.57;81.49;55862.69;4979634;28;20031;-83
2023/12/03 09:20:14;;;;;;;14.80;6.55;;;;;;;-142.57;80.42;55892.97;4928316;29;20042;-85
2023/12/03 09:22:40;;;;;;;8.90;4.82;;;;;;;-142.57;80.14;55899.03;4950776;29;20035;-85
2023/12/03 09:25:06;;;;;;;9.05;4.97;;;;;;;-142.57;80.28;55927.34;4934157;28;20062;-88
2023/12/03 09:27:33;;;;;;;7.03;4.57;;;;;;;-142.57;84.83;55862.69;4960656;28;20039;-86
2023/12/03 09:29:59;;;;;;;14.95;5.22;;;;;;;-142.57;91.18;55862.69;4945603;29;20068;-87
2023/12/03 09:32:28;;;;;;;7.55;4.10;;;;;;;-142.57;90.91;55888.94;4941890;28;20045;-84
2023/12/03 09:34:59;;;;;;;5.35;4.15;;;;;;;-142.57;91.01;55886.91;4956213;28;20082;-86
2023/12/03 09:37:32;;;;;;;6.15;3.85;;;;;;;-142.57;90.35;55929.34;4970091;28;20485;-88
2023/12/03 09:40:15;;;;;;;7.72;4.10;;;;;;;-142.57;89.65;55951.59;4955645;28;20063;-86
2023/12/03 09:42:50;;;;;;;7.10;4.60;;;;;;;-142.57;88.20;55963.72;4972043;28;20035;-87
2023/12/03 09:45:26;;;;;;;6.00;3.95;;;;;;;-142.57;88.34;56020.28;4943152;29;20044;-86
2023/12/03 09:48:08;;;;;;;8.23;4.57;;;;;;;-142.57;89.50;55953.59;4962660;28;20083;-88
2023/12/03 09:50:37;;;;;;;8.73;5.15;;;;;;;-142.57;91.61;55937.44;4946554;28;20103;-89
2023/12/03 09:53:14;;;;;;;9.93;5.05;;;;;;;-142.57;93.22;55927.34;4962306;28;20115;-84
2023/12/03 09:55:43;;;;;;;6.90;4.90;;;;;;;-142.57;93.09;55903.09;4952806;28;20058;-89
2023/12/03 09:58:14;;;;;;;6.05;4.50;;;;;;;-142.57;90.49;55987.94;4938383;29;20462;-84
2023/12/03 10:00:40;;;;;;;5.95;4.45;;;;;;;-142.57;91.52;55955.63;4959369;28;20038;-86
2023/12/03 10:03:09;;;;;;;5.93;4.20;;;;;;;-142.57;91.16;55996.03;4942363;28;20027;-83
2023/12/03 10:05:35;;;;;;;6.22;4.40;;;;;;;-142.57;90.93;55927.34;4959778;28;20039;-85
2023/12/03 10:08:03;;;;;;;8.82;4.38;;;;;;;-142.57;93.58;55947.53;4962565;28;20050;-88
2023/12/03 10:10:36;;;;;;;10.73;6.70;;;;;;;-142.57;98.02;55945.53;4939163;28;20055;-86
2023/12/03 10:13:05;;;;;;;7.07;4.40;;;;;;;-142.57;94.53;55979.88;4961384;28;20604;-87
2023/12/03 10:15:31;;;;;;;7.72;4.13;;;;;;;-142.57;93.90;55983.91;4957144;28;20133;-84
2023/12/03 10:17:59;;;;;;;8.93;4.22;;;;;;;-142.57;93.55;55996.03;4965567;28;20567;-85
2023/12/03 10:20:28;;;;;;;9.82;4.10;;;;;;;-142.57;95.81;55992.00;4974389;28;20038;-90
2023/12/03 10:22:59;;;;;;;6.70;4.85;;;;;;;-142.57;95.69;56012.19;4973150;28;20437;-87
2023/12/03 10:25:30;;;;;;;9.95;4.53;;;;;;;-142.57;96.32;55992.00;4961687;28;20481;-87
2023/12/03 10:27:57;;;;;;;7.57;4.68;;;;;;;-142.57;95.99;56010.19;4978924;28;20077;-85
2023/12/03 10:30:23;;;;;;;7.70;4.63;;;;;;;-142.57;95.98;55994.00;4978055;28;20113;-86
2023/12/03 10:32:55;;;;;;;11.43;4.70;;;;;;;-142.57;97.69;55975.84;4961296;28;20446;-88
2023/12/03 10:35:25;;;;;;;10.93;4.57;;;;;;;-142.57;98.33;55947.53;4980894;28;20066;-88
2023/12/03 10:37:51;;;;;;;5.38;3.92;;;;;;;-142.57;95.04;56010.19;4977051;28;20034;-85
2023/12/03 10:40:20;;;;;;;6.28;4.03;;;;;;;-142.57;93.01;56028.38;4977053;28;20405;-88
2023/12/03 10:42:46;;;;;;;5.78;4.10;;;;;;;-142.57;91.38;56028.38;4978144;28;20166;-88
2023/12/03 10:45:14;;;;;;;6.80;4.00;;;;;;;-142.57;91.23;56012.19;4978739;28;20035;-84
2023/12/03 10:47:41;;;;;;;35.10;10.23;;;;;;;-142.57;93.15;56032.41;4961349;28;20409;-85
2023/12/03 10:50:11;;;;;;;11.40;5.68;;;;;;;-142.57;94.26;55983.91;4980326;28;20046;-86
2023/12/03 10:52:38;;;;;;;8.07;4.45;;;;;;;-142.57;93.52;55998.06;4989599;28;20035;-87
2023/12/03 10:55:10;;;;;;;11.05;4.88;;;;;;;-142.57;95.28;55935.41;4981051;28;20030;-89
2023/12/03 10:57:51;;;;;;;8.55;4.85;;;;;;;-142.57;97.60;55959.66;4995901;28;20027;-86
2023/12/03 11:00:22;;;;;;;14.50;4.47;;;;;;;-142.57;93.38;56004.13;4962164;28;20102;-87
2023/12/03 11:03:04;;;;;;;6.47;4.32;;;;;;;-142.57;93.38;56072.81;4950821;28;20049;-89
2023/12/03 11:05:46;;;;;;;8.48;4.70;;;;;;;-142.57;93.29;56040.50;4982035;28;20397;-89
2023/12/03 11:08:14;;;;;;;6.13;4.00;;;;;;;-142.57;93.93;56038.47;4963251;28;20495;-86
2023/12/03 11:10:40;;;;;;;13.43;4.22;;;;;;;-142.57;93.30;56074.84;4958919;28;20078;-87
2023/12/03 11:13:06;;;;;;;8.38;5.20;;;;;;;-142.57;92.28;56080.91;4959989;28;20533;-86
2023/12/03 11:15:32;;;;;;;10.52;5.22;;;;;;;-142.57;93.40;56084.94;4959723;28;20508;-85
2023/12/03 11:17:59;;;;;;;17.27;6.18;;;;;;;-142.57;96.36;56066.75;4979468;28;20039;-86
2023/12/03 11:20:32;;;;;;;10.20;6.03;;;;;;;-142.57;96.72;56099.09;4980316;28;20035;-87
2023/12/03 11:23:00;;;;;;;8.35;4.53;;;;;;;-142.57;94.47;56147.59;4964061;28;20114;-87
2023/12/03 11:25:48;;;;;;;11.27;5.20;;;;;;;-142.57;94.43;56159.72;4991537;28;20039;-85